地図

経路データ

SID SEASON NUMBER BASIN SUBBASIN NAME ISO_TIME NATURE LAT LON WMO_WIND WMO_PRES WMO_AGENCY TRACK_TYPE DIST2LAND LANDFALL IFLAG USA_AGENCY USA_ATCF_ID USA_LAT USA_LON USA_RECORD USA_STATUS USA_WIND USA_PRES USA_SSHS USA_R34_NE USA_R34_SE USA_R34_SW USA_R34_NW USA_R50_NE USA_R50_SE USA_R50_SW USA_R50_NW USA_R64_NE USA_R64_SE USA_R64_SW USA_R64_NW USA_POCI USA_ROCI USA_RMW USA_EYE TOKYO_LAT TOKYO_LON TOKYO_GRADE TOKYO_WIND TOKYO_PRES TOKYO_R50_DIR TOKYO_R50_LONG TOKYO_R50_SHORT TOKYO_R30_DIR TOKYO_R30_LONG TOKYO_R30_SHORT TOKYO_LAND CMA_LAT CMA_LON CMA_CAT CMA_WIND CMA_PRES HKO_LAT HKO_LON HKO_CAT HKO_WIND HKO_PRES NEWDELHI_LAT NEWDELHI_LON NEWDELHI_GRADE NEWDELHI_WIND NEWDELHI_PRES NEWDELHI_CI NEWDELHI_DP NEWDELHI_POCI REUNION_LAT REUNION_LON REUNION_TYPE REUNION_WIND REUNION_PRES REUNION_TNUM REUNION_CI REUNION_RMW REUNION_R34_NE REUNION_R34_SE REUNION_R34_SW REUNION_R34_NW REUNION_R50_NE REUNION_R50_SE REUNION_R50_SW REUNION_R50_NW REUNION_R64_NE REUNION_R64_SE REUNION_R64_SW REUNION_R64_NW BOM_LAT BOM_LON BOM_TYPE BOM_WIND BOM_PRES BOM_TNUM BOM_CI BOM_RMW BOM_R34_NE BOM_R34_SE BOM_R34_SW BOM_R34_NW BOM_R50_NE BOM_R50_SE BOM_R50_SW BOM_R50_NW BOM_R64_NE BOM_R64_SE BOM_R64_SW BOM_R64_NW BOM_ROCI BOM_POCI BOM_EYE BOM_POS_METHOD BOM_PRES_METHOD NADI_LAT NADI_LON NADI_CAT NADI_WIND NADI_PRES WELLINGTON_LAT WELLINGTON_LON WELLINGTON_WIND WELLINGTON_PRES DS824_LAT DS824_LON DS824_STAGE DS824_WIND DS824_PRES TD9636_LAT TD9636_LON TD9636_STAGE TD9636_WIND TD9636_PRES TD9635_LAT TD9635_LON TD9635_WIND TD9635_PRES TD9635_ROCI NEUMANN_LAT NEUMANN_LON NEUMANN_CLASS NEUMANN_WIND NEUMANN_PRES MLC_LAT MLC_LON MLC_CLASS MLC_WIND MLC_PRES USA_GUST BOM_GUST BOM_GUST_PER REUNION_GUST REUNION_GUST_PER USA_SEAHGT USA_SEARAD_NE USA_SEARAD_SE USA_SEARAD_SW USA_SEARAD_NW STORM_SPEED STORM_DIR
2020164N16120 2020 19 WP MM NURI 2020-06-12 00:00:00 NR 16.0000 119.600 PROVISIONAL 10 10 O_____________ tcvitals WP022020 16.0000 119.600 29 1002 -1 1006 210 40 19 305
2020164N16120 2020 19 WP MM NURI 2020-06-12 03:00:00 NR 16.5283 118.804 PROVISIONAL 109 109 P_____________ WP022020 16.5283 118.804 29 1001 -1 1005 200 40 18 305
2020164N16120 2020 19 WP MM NURI 2020-06-12 06:00:00 NR 17.0000 118.100 PROVISIONAL 197 197 O_____________ tcvitals WP022020 17.0000 118.100 29 1001 -1 1004 190 40 15 305
2020164N16120 2020 19 WP MM NURI 2020-06-12 09:00:00 NR 17.3672 117.567 PROVISIONAL 264 264 P_____________ WP022020 17.3672 117.567 29 1000 -1 1003 187 40 11 305
2020164N16120 2020 19 WP MM NURI 2020-06-12 12:00:00 NR 17.6000 117.200 PROVISIONAL 312 312 O_____________ tcvitals WP022020 17.6000 117.200 29 1000 -1 1003 185 40 6 298
2020164N16120 2020 19 WP MM NURI 2020-06-12 15:00:00 NR 17.6420 117.029 PROVISIONAL 331 331 P_____________ WP022020 17.6420 117.029 29 999 -1 1003 177 40 4 285
2020164N16120 2020 19 WP MM NURI 2020-06-12 18:00:00 NR 17.7000 116.800 PROVISIONAL 355 355 O_____________ tcvitals WP022020 17.7000 116.800 29 999 -1 1003 170 40 9 291
2020164N16120 2020 19 WP MM NURI 2020-06-12 21:00:00 NR 17.9609 116.143 PROVISIONAL 436 436 P_____________ WP022020 17.9609 116.143 32 998 -1 1003 167 40 14 300
2020164N16120 2020 19 WP MM NURI 2020-06-13 00:00:00 NR 18.4000 115.500 PROVISIONAL 453 383 O_____________ tcvitals WP022020 18.4000 115.500 35 998 0 1004 165 40 14 325
2020164N16120 2020 19 WP MM NURI 2020-06-13 03:00:00 NR 19.0569 115.319 PROVISIONAL 372 305 P_____________ WP022020 19.0569 115.319 35 997 0 1003 142 40 13 348
2020164N16120 2020 19 WP MM NURI 2020-06-13 06:00:00 NR 19.7000 115.200 PROVISIONAL 305 262 O_____________ tcvitals WP022020 19.7000 115.200 35 997 0 150 45 45 100 1002 120 40 11 334
2020164N16120 2020 19 WP MM NURI 2020-06-13 09:00:00 NR 20.0601 114.802 PROVISIONAL 251 223 P_____________ WP022020 20.0601 114.802 35 997 0 115 45 47 82 1001 120 40 10 305
2020164N16120 2020 19 WP MM NURI 2020-06-13 12:00:00 NR 20.3000 114.300 PROVISIONAL 223 182 O_____________ tcvitals WP022020 20.3000 114.300 35 998 0 80 45 50 65 1001 120 40 10 297
2020164N16120 2020 19 WP MM NURI 2020-06-13 15:00:00 NR 20.5197 113.829 PROVISIONAL 177 126 P_____________ WP022020 20.5197 113.829 32 999 -1 1002 102 35 11 298
2020164N16120 2020 19 WP MM NURI 2020-06-13 18:00:00 NR 20.8000 113.300 PROVISIONAL 126 56 O_____________ tcvitals WP022020 20.8000 113.300 29 1000 -1 1004 85 30 14 305
2020164N16120 2020 19 WP MM NURI 2020-06-13 21:00:00 NR 21.2929 112.636 PROVISIONAL 54 0 P_____________ WP022020 21.2929 112.636 27 1001 -1 1004 82 30 16 310
2020164N16120 2020 19 WP MM NURI 2020-06-14 00:00:00 NR 21.8000 112.000 PROVISIONAL 0 0 O_____________ tcvitals WP022020 21.8000 112.000 25 1003 -1 1004 80 30 13 310
2020164N16120 2020 19 WP MM NURI 2020-06-14 03:00:00 NR 22.1068 111.591 PROVISIONAL 0 0 P_____________ WP022020 22.1068 111.591 25 1003 -1 1005 80 30 10 309
2020164N16120 2020 19 WP MM NURI 2020-06-14 06:00:00 NR 22.4000 111.200 PROVISIONAL 0 0 O_____________ tcvitals WP022020 22.4000 111.200 25 1004 -1 1006 80 30 11 309
2020164N16120 2020 19 WP MM NURI 2020-06-14 09:00:00 NR 22.8109 110.654 PROVISIONAL 0 0 P_____________ WP022020 22.8109 110.654 22 1005 -1 1007 80 30 14 309
2020164N16120 2020 19 WP MM NURI 2020-06-14 12:00:00 NR 23.3000 110.000 PROVISIONAL 0 O_____________ tcvitals WP022020 23.3000 110.000 19 1006 -1 1008 80 30 16 309

デジタル台風データ・検索

IBTrACS Databaseについて

本データベースは、米国NOAAが公開する1842年以降の世界の熱帯低気圧のベストトラックデータアーカイブInternational Best Track Archive for Climate Stewardship (IBTrACS)を、ウェブで閲覧しやすい形式に変換したものです。

最終更新日:2021-12-06